Time;durP1;ratioP1;P1;durP2;ratioP2;P2;SDS_P1;SDS_P2;PMS_P1;PMS_P2;Temp;Humidity;BMP_temperature;BMP_pressure;BME280_temperature;BME280_humidity;BME280_pressure;Samples;Min_cycle;Max_cycle;Signal;HPM_P1;HPM_P2
2021/03/27 00:01:08;;;;;;;14.38;10.57;;;;;;;7.89;92.17;100298.25;5206853;28;20028;-80
2021/03/27 00:03:54;;;;;;;16.25;11.63;;;;;;;7.83;93.09;100282.84;5196126;28;20056;-80
2021/03/27 00:06:35;;;;;;;16.48;11.02;;;;;;;7.76;93.49;100286.53;5195500;28;20075;-81
2021/03/27 00:09:14;;;;;;;17.27;11.02;;;;;;;7.74;93.31;100284.84;5194634;28;20021;-81
2021/03/27 00:11:54;;;;;;;18.45;11.05;;;;;;;7.59;94.27;100280.94;5191559;28;20104;-82
2021/03/27 00:14:49;;;;;;;16.90;10.60;;;;;;;7.41;95.00;100283.19;5192122;28;20441;-80
2021/03/27 00:17:33;;;;;;;16.50;10.70;;;;;;;7.24;94.95;100284.56;5191593;28;20106;-80
2021/03/27 00:20:13;;;;;;;20.20;10.93;;;;;;;7.11;95.16;100275.38;5195609;28;20498;-79
2021/03/27 00:23:11;;;;;;;17.70;10.88;;;;;;;6.87;96.07;100270.81;5190672;28;20037;-79
2021/03/27 00:25:48;;;;;;;20.35;10.43;;;;;;;6.77;97.07;100270.19;5190513;28;20030;-80
2021/03/27 00:28:27;;;;;;;17.33;10.43;;;;;;;6.78;98.06;100266.69;5193955;28;20412;-79
2021/03/27 00:31:13;;;;;;;18.65;10.90;;;;;;;6.84;98.46;100268.28;5176958;28;20050;-80
2021/03/27 00:33:57;;;;;;;16.15;11.02;;;;;;;6.80;97.88;100259.72;5199780;28;20060;-80
2021/03/27 00:36:39;;;;;;;15.45;10.45;;;;;;;6.84;98.04;100255.31;5204174;28;20525;-79
2021/03/27 00:39:19;;;;;;;19.90;10.90;;;;;;;6.94;97.69;100255.03;5214102;28;20030;-79
2021/03/27 00:41:56;;;;;;;19.42;10.88;;;;;;;6.95;98.38;100253.28;5205348;28;20063;-79
2021/03/27 00:44:33;;;;;;;19.60;10.77;;;;;;;7.08;98.09;100252.09;5192866;28;20021;-80
2021/03/27 00:47:04;;;;;;;20.55;10.55;;;;;;;7.12;97.29;100245.91;5191500;28;20029;-79
2021/03/27 00:49:38;;;;;;;19.27;10.25;;;;;;;7.12;97.29;100235.50;5193522;28;20179;-82
2021/03/27 00:52:15;;;;;;;17.00;10.13;;;;;;;7.22;97.12;100233.44;5193703;28;20183;-80
2021/03/27 00:54:55;;;;;;;17.08;10.57;;;;;;;7.30;96.30;100233.25;5199652;28;20432;-80
2021/03/27 00:57:33;;;;;;;18.73;10.85;;;;;;;7.35;95.29;100234.00;5205370;28;20029;-80
2021/03/27 01:00:12;;;;;;;18.52;9.65;;;;;;;7.35;95.26;100227.03;5177209;28;20035;-82
2021/03/27 01:02:51;;;;;;;19.75;10.18;;;;;;;7.48;94.42;100225.78;5169102;28;20360;-80
2021/03/27 01:05:24;;;;;;;17.70;10.10;;;;;;;7.53;94.25;100223.06;5190101;28;20034;-82
2021/03/27 01:07:57;;;;;;;15.82;9.38;;;;;;;7.54;93.42;100228.22;5197131;28;20108;-80
2021/03/27 01:10:46;;;;;;;15.50;9.43;;;;;;;7.66;92.78;100227.84;5186197;28;20029;-82
2021/03/27 01:13:35;;;;;;;14.57;8.90;;;;;;;7.70;92.63;100226.88;5190667;28;20224;-80
2021/03/27 01:16:08;;;;;;;14.13;8.88;;;;;;;7.72;91.93;100221.63;5186816;28;20096;-81
2021/03/27 01:18:44;;;;;;;16.23;9.15;;;;;;;7.81;91.89;100218.72;5190482;28;20026;-79
2021/03/27 01:21:19;;;;;;;17.63;8.32;;;;;;;7.82;91.59;100212.63;5197306;28;20559;-79
2021/03/27 01:24:16;;;;;;;13.60;8.32;;;;;;;7.95;90.83;100217.44;5195880;28;20029;-79
2021/03/27 01:26:53;;;;;;;13.95;7.72;;;;;;;8.23;89.58;100213.09;5187964;28;20072;-80
2021/03/27 01:29:33;;;;;;;16.38;7.38;;;;;;;8.59;88.00;100200.63;5190498;28;20226;-82
2021/03/27 01:32:13;;;;;;;14.40;7.50;;;;;;;9.08;84.69;100196.28;5197163;28;20507;-79
2021/03/27 01:35:24;;;;;;;13.27;7.15;;;;;;;9.26;83.64;100191.25;5192779;28;20033;-79
2021/03/27 01:38:02;;;;;;;12.88;7.38;;;;;;;9.44;83.00;100194.94;5170868;28;20507;-79
2021/03/27 01:40:52;;;;;;;13.77;6.72;;;;;;;9.61;81.94;100188.19;5205452;28;20044;-79
2021/03/27 01:43:57;;;;;;;12.93;6.75;;;;;;;9.86;80.08;100178.50;5210490;28;20027;-79
2021/03/27 01:46:30;;;;;;;11.48;6.50;;;;;;;10.11;79.39;100173.19;5195542;28;20025;-83
2021/03/27 01:49:17;;;;;;;13.88;6.35;;;;;;;10.19;78.21;100171.16;5204166;28;20108;-80
2021/03/27 01:52:03;;;;;;;11.05;6.10;;;;;;;10.19;78.72;100161.53;5188407;28;20060;-81
2021/03/27 01:54:39;;;;;;;12.48;6.55;;;;;;;10.11;78.57;100160.16;5193265;28;20060;-82
2021/03/27 01:57:13;;;;;;;11.48;5.80;;;;;;;10.03;78.41;100164.84;5190848;28;20387;-81
2021/03/27 01:59:47;;;;;;;14.43;5.80;;;;;;;10.04;78.10;100148.25;5193694;28;20378;-81
2021/03/27 02:02:34;;;;;;;10.73;5.78;;;;;;;10.28;77.40;100145.50;5189432;28;20045;-80
2021/03/27 02:05:13;;;;;;;14.18;5.60;;;;;;;10.29;77.49;100156.78;5193486;28;20088;-81
2021/03/27 02:07:53;;;;;;;10.25;5.63;;;;;;;10.23;77.49;100152.69;5188774;28;20404;-81
2021/03/27 02:10:48;;;;;;;11.50;5.05;;;;;;;10.30;77.13;100154.13;5197769;28;20038;-83
2021/03/27 02:14:02;;;;;;;11.05;5.43;;;;;;;10.11;77.87;100153.19;5196284;28;20025;-81
2021/03/27 02:16:48;;;;;;;10.10;5.63;;;;;;;9.92;79.87;100151.31;5112183;29;20039;-80
2021/03/27 02:19:43;;;;;;;15.73;6.07;;;;;;;9.94;80.44;100154.72;5195454;28;20094;-80
2021/03/27 02:22:25;;;;;;;9.55;6.07;;;;;;;9.82;80.79;100150.00;5214406;28;20032;-79
2021/03/27 02:25:19;;;;;;;10.70;6.20;;;;;;;9.39;82.85;100139.50;5192765;28;20030;-80
2021/03/27 02:28:07;;;;;;;12.38;6.68;;;;;;;9.46;83.19;100149.63;5196658;28;20033;-81
2021/03/27 02:30:42;;;;;;;11.43;6.55;;;;;;;9.07;83.94;100142.44;5175640;28;20025;-80
2021/03/27 02:33:31;;;;;;;10.68;7.05;;;;;;;8.86;85.32;100140.63;5189457;28;20435;-80
2021/03/27 02:36:26;;;;;;;11.15;7.25;;;;;;;8.63;86.05;100137.97;5197156;28;20815;-80
2021/03/27 02:39:13;;;;;;;10.68;6.80;;;;;;;8.48;86.96;100141.09;5195960;28;20041;-80
2021/03/27 02:42:05;;;;;;;10.48;6.82;;;;;;;8.49;86.64;100142.81;5180475;28;20030;-80
2021/03/27 02:44:47;;;;;;;11.13;6.70;;;;;;;8.48;85.85;100133.28;5196722;28;20401;-79
2021/03/27 02:47:48;;;;;;;9.35;6.45;;;;;;;8.36;86.32;100127.66;5177475;28;20540;-80
2021/03/27 02:50:30;;;;;;;10.15;5.95;;;;;;;8.26;86.87;100124.50;5194937;28;20026;-80
2021/03/27 02:53:22;;;;;;;11.30;6.22;;;;;;;8.25;86.39;100121.94;5193648;28;20431;-81
2021/03/27 02:56:19;;;;;;;10.85;5.90;;;;;;;8.18;86.88;100117.84;5191494;28;20121;-80
2021/03/27 02:59:08;;;;;;;11.63;6.32;;;;;;;8.12;86.96;100113.66;5196775;28;20033;-82
2021/03/27 03:01:46;;;;;;;9.07;6.10;;;;;;;8.09;87.18;100118.13;5190335;28;20033;-81
2021/03/27 03:04:41;;;;;;;10.30;5.75;;;;;;;8.02;87.07;100106.22;5201151;28;20033;-80
2021/03/27 03:07:47;;;;;;;11.93;6.40;;;;;;;7.96;87.77;100109.00;5193254;28;20083;-81
2021/03/27 03:10:32;;;;;;;11.80;5.97;;;;;;;7.87;88.38;100093.72;5180638;28;20037;-83
2021/03/27 03:13:23;;;;;;;10.00;5.70;;;;;;;7.92;88.27;100091.78;5193158;28;20471;-80
2021/03/27 03:16:10;;;;;;;9.85;5.47;;;;;;;7.94;87.89;100093.47;5184724;28;20041;-79
2021/03/27 03:19:34;;;;;;;9.05;5.50;;;;;;;8.11;87.88;100082.47;5193252;28;20021;-81
2021/03/27 03:22:23;;;;;;;7.80;5.22;;;;;;;8.38;87.30;100073.78;5161259;28;20034;-80
2021/03/27 03:24:59;;;;;;;10.07;5.30;;;;;;;8.58;86.12;100069.53;5193722;28;20038;-81
2021/03/27 03:27:48;;;;;;;7.82;5.15;;;;;;;8.51;87.09;100068.09;5197712;28;20030;-80
2021/03/27 03:30:26;;;;;;;8.98;5.25;;;;;;;8.50;89.12;100066.38;5197618;28;20029;-79
2021/03/27 03:33:15;;;;;;;10.60;4.93;;;;;;;8.57;89.94;100073.06;5196250;28;20037;-81
2021/03/27 03:36:07;;;;;;;9.00;4.85;;;;;;;8.55;91.50;100079.25;5191937;28;20063;-80
2021/03/27 03:38:49;;;;;;;10.13;4.63;;;;;;;8.63;91.51;100072.88;5201685;28;20427;-81
2021/03/27 03:41:57;;;;;;;10.07;4.85;;;;;;;8.69;91.83;100082.22;5211959;28;20056;-79
2021/03/27 03:44:50;;;;;;;7.07;4.47;;;;;;;8.87;89.92;100094.56;5195780;28;20029;-78
2021/03/27 03:48:06;;;;;;;10.23;4.22;;;;;;;9.13;88.47;100084.88;5189386;28;20034;-82
2021/03/27 03:50:50;;;;;;;8.10;4.70;;;;;;;9.31;87.45;100079.81;5194764;28;20029;-80
2021/03/27 03:53:44;;;;;;;8.27;4.15;;;;;;;9.38;87.56;100081.28;5183390;28;20025;-80
2021/03/27 03:56:28;;;;;;;7.32;4.32;;;;;;;9.32;86.51;100081.50;5190987;28;20025;-81
2021/03/27 03:59:30;;;;;;;11.40;4.00;;;;;;;9.45;86.32;100081.91;5191804;28;20025;-80
2021/03/27 04:02:12;;;;;;;9.77;4.38;;;;;;;9.45;86.36;100089.72;5194446;28;20542;-79
2021/03/27 04:04:47;;;;;;;8.35;4.75;;;;;;;9.49;86.30;100099.13;5195931;28;20112;-82
2021/03/27 04:07:21;;;;;;;10.68;5.07;;;;;;;9.54;85.75;100098.06;5170537;28;20492;-79
2021/03/27 04:09:58;;;;;;;8.65;4.40;;;;;;;9.29;87.80;100109.47;5201751;28;20449;-80
2021/03/27 04:12:36;;;;;;;9.52;4.82;;;;;;;9.17;87.67;100107.31;5186844;28;20029;-79
2021/03/27 04:15:18;;;;;;;9.30;3.97;;;;;;;9.35;85.02;100111.84;5193231;28;20032;-79
2021/03/27 04:18:03;;;;;;;9.18;3.72;;;;;;;10.17;82.31;100110.31;5174086;28;20041;-79
2021/03/27 04:20:57;;;;;;;9.65;3.58;;;;;;;10.49;81.10;100107.19;5191025;28;20488;-81
2021/03/27 04:23:43;;;;;;;5.70;3.38;;;;;;;10.63;80.13;100104.81;5186795;28;20465;-82
2021/03/27 04:26:26;;;;;;;8.82;3.50;;;;;;;10.60;80.52;100110.19;5199374;28;20033;-79
2021/03/27 04:29:33;;;;;;;7.03;3.80;;;;;;;10.63;80.16;100125.72;5194816;28;21598;-81
2021/03/27 04:32:42;;;;;;;8.40;4.03;;;;;;;10.68;80.42;100129.00;5173681;28;20056;-79
2021/03/27 04:35:26;;;;;;;6.97;3.90;;;;;;;10.75;80.47;100140.88;5189607;28;20038;-80
2021/03/27 04:38:24;;;;;;;6.90;3.50;;;;;;;10.65;81.24;100156.09;5197974;28;20044;-81
2021/03/27 04:41:32;;;;;;;7.07;3.67;;;;;;;10.71;82.98;100178.53;5191978;28;20103;-79
2021/03/27 04:44:32;;;;;;;8.57;3.75;;;;;;;10.08;90.43;100220.31;5190007;28;20490;-82
2021/03/27 04:47:19;;;;;;;8.38;4.53;;;;;;;9.73;95.33;100246.88;5199724;28;20079;-81
2021/03/27 04:49:56;;;;;;;8.48;3.40;;;;;;;9.05;98.54;100243.31;5186286;28;20407;-81
2021/03/27 04:52:55;;;;;;;5.15;3.15;;;;;;;8.73;100.00;100276.56;5194247;28;20029;-80
2021/03/27 04:56:01;;;;;;;5.72;2.97;;;;;;;8.35;100.00;100280.41;5161846;28;20045;-78
2021/03/27 04:58:42;;;;;;;4.35;1.80;;;;;;;8.02;100.00;100275.34;5188532;28;20113;-79
2021/03/27 05:01:43;;;;;;;2.58;1.90;;;;;;;7.89;100.00;100281.81;5203125;28;20383;-78
2021/03/27 05:04:39;;;;;;;3.33;1.70;;;;;;;7.70;100.00;100301.44;5202949;28;20057;-80
2021/03/27 05:07:18;;;;;;;3.17;1.80;;;;;;;7.68;100.00;100298.88;5202390;28;20029;-81
2021/03/27 05:10:10;;;;;;;3.05;1.85;;;;;;;7.51;100.00;100308.91;5205313;28;20033;-80
2021/03/27 05:13:04;;;;;;;2.95;2.08;;;;;;;7.57;100.00;100316.56;5200336;28;20029;-79
2021/03/27 05:16:08;;;;;;;3.95;2.40;;;;;;;7.57;100.00;100319.16;5207161;28;20036;-79
2021/03/27 05:19:11;;;;;;;3.78;2.10;;;;;;;7.49;100.00;100326.28;5192987;28;20484;-79
2021/03/27 05:21:53;;;;;;;2.95;1.90;;;;;;;7.51;100.00;100332.28;5191101;28;20057;-80
2021/03/27 05:25:04;;;;;;;5.10;2.10;;;;;;;7.50;100.00;100338.41;5193238;28;20096;-81
2021/03/27 05:27:51;;;;;;;3.20;2.20;;;;;;;7.59;100.00;100343.34;5194309;28;20407;-78
2021/03/27 05:30:34;;;;;;;2.90;1.90;;;;;;;7.62;100.00;100361.47;5191041;28;20029;-80
2021/03/27 05:33:22;;;;;;;1.45;1.30;;;;;;;7.57;100.00;100365.97;5190153;28;20025;-79
2021/03/27 05:36:17;;;;;;;2.13;1.40;;;;;;;7.47;100.00;100368.81;5174670;28;20034;-80
2021/03/27 05:39:04;;;;;;;3.50;2.25;;;;;;;7.44;100.00;100358.50;5173379;28;20038;-78
2021/03/27 05:41:53;;;;;;;4.15;2.17;;;;;;;7.44;100.00;100390.56;5200986;28;20096;-81
2021/03/27 05:44:35;;;;;;;3.83;1.98;;;;;;;7.38;100.00;100406.28;5208353;28;20060;-80
2021/03/27 05:47:34;;;;;;;3.00;1.63;;;;;;;7.28;100.00;100408.34;5178664;28;20491;-81
2021/03/27 05:50:32;;;;;;;3.05;1.65;;;;;;;7.25;100.00;100398.03;5175471;28;20644;-78
2021/03/27 05:53:28;;;;;;;2.28;1.55;;;;;;;7.16;100.00;100419.88;5193319;28;20030;-78
2021/03/27 05:56:28;;;;;;;1.73;1.50;;;;;;;7.07;100.00;100427.88;5193415;28;20029;-81
2021/03/27 05:59:25;;;;;;;2.90;1.80;;;;;;;7.15;100.00;100432.91;5208916;28;20527;-80
2021/03/27 06:02:04;;;;;;;2.25;1.83;;;;;;;7.20;100.00;100441.44;5206105;28;20075;-80
2021/03/27 06:04:46;;;;;;;3.00;2.10;;;;;;;7.08;100.00;100452.97;5209161;28;20510;-80
2021/03/27 06:07:38;;;;;;;4.05;1.75;;;;;;;7.08;100.00;100449.53;5190736;28;20391;-80
2021/03/27 06:10:46;;;;;;;2.38;1.80;;;;;;;7.13;100.00;100460.69;5189653;28;20030;-79
2021/03/27 06:13:38;;;;;;;4.65;1.73;;;;;;;7.02;100.00;100467.84;5192179;28;20021;-79
2021/03/27 06:16:30;;;;;;;4.65;2.00;;;;;;;6.99;100.00;100473.13;5205249;28;20104;-80
2021/03/27 06:19:35;;;;;;;2.85;2.03;;;;;;;7.08;100.00;100478.13;5192467;28;20030;-80
2021/03/27 06:22:29;;;;;;;2.45;1.80;;;;;;;7.12;100.00;100483.19;5193164;28;20025;-78
2021/03/27 06:25:31;;;;;;;3.15;1.92;;;;;;;7.08;100.00;100488.53;5192581;28;20510;-78
2021/03/27 06:28:31;;;;;;;2.90;2.10;;;;;;;7.12;100.00;100483.19;5190988;28;20028;-79
2021/03/27 06:31:47;;;;;;;4.25;2.33;;;;;;;7.09;100.00;100492.81;5193034;28;20026;-80
2021/03/27 06:34:43;;;;;;;3.22;2.33;;;;;;;7.03;100.00;100503.34;5190864;28;20054;-80
2021/03/27 06:37:34;;;;;;;4.35;2.50;;;;;;;7.08;100.00;100504.94;5189367;28;20033;-80
2021/03/27 06:40:26;;;;;;;4.07;3.08;;;;;;;7.01;100.00;100500.78;5188417;28;20441;-79
2021/03/27 06:43:30;;;;;;;3.85;2.60;;;;;;;7.00;100.00;100506.00;5190421;28;20048;-80
2021/03/27 06:46:22;;;;;;;4.75;3.42;;;;;;;7.08;100.00;100510.13;5192779;28;20467;-80
2021/03/27 06:49:16;;;;;;;4.53;3.45;;;;;;;7.10;100.00;100515.31;5189909;28;20022;-78
2021/03/27 06:52:17;;;;;;;5.68;3.33;;;;;;;7.16;100.00;100512.56;5189515;28;20063;-80
2021/03/27 06:55:11;;;;;;;6.30;4.38;;;;;;;7.27;100.00;100523.59;5189262;28;20041;-78
2021/03/27 06:58:20;;;;;;;5.90;4.25;;;;;;;7.24;100.00;100527.09;5189869;28;20087;-78
2021/03/27 07:01:09;;;;;;;5.88;4.38;;;;;;;7.19;100.00;100528.09;5192344;28;20459;-80
2021/03/27 07:04:11;;;;;;;8.00;4.80;;;;;;;7.39;100.00;100529.34;5191858;28;20038;-80
2021/03/27 07:06:49;;;;;;;6.65;4.55;;;;;;;7.42;100.00;100527.53;5192585;28;20033;-80
2021/03/27 07:09:53;;;;;;;7.45;5.07;;;;;;;7.39;98.17;100524.16;5193799;28;20109;-81
2021/03/27 07:12:46;;;;;;;7.57;5.10;;;;;;;7.54;97.83;100532.41;5193605;28;20025;-81
2021/03/27 07:15:44;;;;;;;9.98;5.90;;;;;;;7.52;97.50;100539.41;5194947;28;20483;-79
2021/03/27 07:18:40;;;;;;;10.05;5.88;;;;;;;7.53;97.48;100537.69;5193256;28;20044;-79
2021/03/27 07:21:29;;;;;;;7.75;5.55;;;;;;;7.99;96.64;100539.09;5191957;28;20074;-80
2021/03/27 07:24:34;;;;;;;8.27;5.93;;;;;;;7.98;94.90;100544.31;5174321;28;20036;-79
2021/03/27 07:27:25;;;;;;;9.75;6.40;;;;;;;7.87;94.13;100546.38;5194944;28;20017;-77
2021/03/27 07:30:23;;;;;;;10.43;7.10;;;;;;;7.83;95.53;100553.38;5191673;28;20022;-79
2021/03/27 07:32:56;;;;;;;13.02;7.85;;;;;;;7.74;94.98;100571.81;5194843;28;20037;-80
2021/03/27 07:35:49;;;;;;;12.85;7.25;;;;;;;7.51;97.37;100583.66;5195998;28;20041;-78
2021/03/27 07:38:34;;;;;;;9.20;2.80;;;;;;;6.92;94.65;100598.84;5193658;28;20032;-80
2021/03/27 07:41:23;;;;;;;11.77;2.40;;;;;;;6.61;97.95;100600.34;5192200;28;20025;-78
2021/03/27 07:44:20;;;;;;;11.50;2.88;;;;;;;6.49;99.65;100600.56;5192737;28;20014;-79
2021/03/27 07:47:21;;;;;;;7.50;3.40;;;;;;;6.31;100.00;100601.78;5192879;28;20487;-79
2021/03/27 07:50:29;;;;;;;12.02;5.70;;;;;;;6.58;100.00;100605.59;5192668;28;20042;-79
2021/03/27 07:53:36;;;;;;;10.30;6.90;;;;;;;6.92;100.00;100611.84;5193289;28;20033;-79
2021/03/27 07:56:40;;;;;;;12.88;6.85;;;;;;;7.11;100.00;100602.78;5207775;28;20021;-80
2021/03/27 07:59:38;;;;;;;10.80;5.90;;;;;;;7.33;96.54;100616.13;5205274;28;20021;-80
2021/03/27 08:02:26;;;;;;;8.40;3.08;;;;;;;7.20;93.28;100612.94;5194697;28;20025;-80
2021/03/27 08:05:20;;;;;;;7.85;2.65;;;;;;;7.10;94.14;100627.03;5193729;28;20380;-78
2021/03/27 08:08:09;;;;;;;7.25;2.92;;;;;;;6.98;93.57;100633.34;5193534;28;20037;-80
2021/03/27 08:11:13;;;;;;;6.63;3.35;;;;;;;7.04;93.49;100628.03;5191928;28;20030;-78
2021/03/27 08:14:21;;;;;;;8.95;4.20;;;;;;;7.46;95.06;100630.56;5194466;28;20041;-77
2021/03/27 08:17:11;;;;;;;8.52;4.53;;;;;;;8.27;91.61;100626.03;5207981;28;20025;-77
2021/03/27 08:20:08;;;;;;;9.27;4.30;;;;;;;10.66;83.01;100620.38;5207427;28;20029;-78
2021/03/27 08:23:01;;;;;;;7.47;3.35;;;;;;;12.42;72.46;100615.19;5206855;28;20525;-78
2021/03/27 08:26:08;;;;;;;5.60;2.75;;;;;;;14.52;66.83;100610.50;5190944;28;20042;-78
2021/03/27 08:28:55;;;;;;;5.18;2.90;;;;;;;15.97;61.72;100616.53;5191595;28;20026;-78
2021/03/27 08:31:44;;;;;;;5.82;2.40;;;;;;;15.68;61.05;100619.13;5194080;28;20051;-80
2021/03/27 08:34:53;;;;;;;6.07;2.67;;;;;;;16.33;60.18;100622.34;5193241;28;20068;-80
2021/03/27 08:37:57;;;;;;;6.95;2.95;;;;;;;15.46;60.93;100632.63;5113184;28;20122;-79
2021/03/27 08:40:43;;;;;;;7.50;3.25;;;;;;;15.89;61.25;100625.81;5120498;28;20062;-80
2021/03/27 08:43:24;;;;;;;6.20;2.90;;;;;;;16.10;59.72;100624.59;5194637;28;20045;-80
2021/03/27 08:46:23;;;;;;;6.38;3.00;;;;;;;16.19;60.47;100622.28;5209486;28;20032;-79
2021/03/27 08:48:59;;;;;;;6.65;3.33;;;;;;;16.71;57.89;100615.66;5211006;28;20029;-80
2021/03/27 08:51:54;;;;;;;9.15;3.60;;;;;;;16.84;58.02;100621.91;5193034;28;20040;-80
2021/03/27 08:54:46;;;;;;;6.75;3.42;;;;;;;16.14;57.42;100628.75;5193056;28;20034;-81
2021/03/27 08:57:25;;;;;;;6.00;2.95;;;;;;;16.07;57.25;100638.78;5193546;28;20053;-80
2021/03/27 09:00:19;;;;;;;7.53;3.38;;;;;;;18.87;52.70;100624.41;5189700;28;20034;-79
2021/03/27 09:03:10;;;;;;;5.95;3.10;;;;;;;17.25;56.09;100630.78;5192672;28;20053;-78
2021/03/27 09:05:53;;;;;;;9.75;3.80;;;;;;;17.00;58.62;100642.00;5191958;28;20059;-81
2021/03/27 09:08:45;;;;;;;7.47;3.20;;;;;;;15.20;57.03;100651.56;5197467;28;20483;-80
2021/03/27 09:11:33;;;;;;;9.93;3.63;;;;;;;13.67;60.16;100665.50;5193375;28;20037;-79
2021/03/27 09:14:20;;;;;;;9.40;3.00;;;;;;;12.00;65.80;100663.25;5192351;28;20045;-78
2021/03/27 09:17:18;;;;;;;8.50;3.55;;;;;;;11.37;66.17;100676.16;5190840;28;20041;-80
2021/03/27 09:20:15;;;;;;;10.45;3.80;;;;;;;10.56;70.21;100696.53;5174858;28;20030;-80
2021/03/27 09:23:16;;;;;;;15.13;4.20;;;;;;;10.48;72.99;100709.03;5191846;28;20036;-79
2021/03/27 09:26:20;;;;;;;11.65;4.10;;;;;;;10.91;73.84;100690.97;5192443;28;20062;-78
2021/03/27 09:29:04;;;;;;;9.88;3.70;;;;;;;10.78;72.07;100689.66;5190084;28;20030;-79
2021/03/27 09:31:45;;;;;;;14.07;4.60;;;;;;;10.70;73.63;100695.16;5193062;28;20030;-79
2021/03/27 09:34:22;;;;;;;9.60;4.03;;;;;;;10.59;72.50;100699.91;5174245;28;20026;-78
2021/03/27 09:37:27;;;;;;;9.95;4.00;;;;;;;11.22;72.94;100688.06;5175391;28;20487;-78
2021/03/27 09:40:23;;;;;;;10.15;3.65;;;;;;;11.27;70.61;100686.13;5193324;28;20041;-79
2021/03/27 09:43:14;;;;;;;11.00;3.70;;;;;;;11.75;71.38;100675.63;5166050;28;20064;-79
2021/03/27 09:46:16;;;;;;;11.25;3.53;;;;;;;12.28;70.10;100684.81;5141317;28;20072;-79
2021/03/27 09:49:14;;;;;;;9.93;3.28;;;;;;;11.82;69.06;100684.94;5193987;28;20033;-77
2021/03/27 09:52:16;;;;;;;8.10;3.10;;;;;;;10.87;70.87;100699.81;5193531;28;20419;-77
2021/03/27 09:54:55;;;;;;;10.98;3.00;;;;;;;10.33;71.88;100722.59;5191496;28;20037;-78
2021/03/27 09:57:50;;;;;;;9.88;3.30;;;;;;;10.06;74.41;100753.03;5194252;28;20065;-79
2021/03/27 10:00:47;;;;;;;7.72;2.53;;;;;;;9.13;81.44;100788.78;5191102;28;20029;-77
2021/03/27 10:03:47;;;;;;;3.45;1.50;;;;;;;7.24;88.86;100807.78;5175538;28;20029;-78
2021/03/27 10:06:36;;;;;;;7.78;2.00;;;;;;;6.85;94.61;100794.66;5187000;28;20508;-77
2021/03/27 10:09:44;;;;;;;7.13;1.85;;;;;;;6.89;96.81;100793.69;5194376;28;20033;-79
2021/03/27 10:12:51;;;;;;;3.85;1.30;;;;;;;6.79;96.99;100792.16;5198593;28;20404;-78
2021/03/27 10:15:34;;;;;;;3.13;1.42;;;;;;;6.89;97.81;100799.78;5200076;28;20449;-79
2021/03/27 10:18:19;;;;;;;7.45;1.83;;;;;;;6.93;97.06;100800.59;5198103;28;20036;-77
2021/03/27 10:20:56;;;;;;;5.20;1.90;;;;;;;7.10;98.00;100803.75;5193606;28;20029;-77
2021/03/27 10:23:41;;;;;;;6.88;2.13;;;;;;;7.07;96.84;100804.66;5192579;28;20025;-79
2021/03/27 10:26:16;;;;;;;6.53;2.30;;;;;;;7.16;96.26;100793.22;5173714;28;20042;-78
2021/03/27 10:28:52;;;;;;;6.60;2.10;;;;;;;7.44;94.53;100800.47;5188621;28;20084;-79
2021/03/27 10:31:35;;;;;;;4.50;2.10;;;;;;;7.50;94.17;100803.81;5190257;28;20096;-78
2021/03/27 10:34:26;;;;;;;7.10;2.92;;;;;;;8.45;98.29;100797.44;5201851;28;20063;-79
2021/03/27 10:37:04;;;;;;;9.23;3.08;;;;;;;8.74;90.89;100797.56;5208248;28;20509;-79
2021/03/27 10:39:48;;;;;;;9.73;3.03;;;;;;;8.86;89.22;100812.09;5195296;28;20029;-79
2021/03/27 10:42:27;;;;;;;8.25;3.85;;;;;;;8.38;91.96;100876.56;5199221;28;20502;-81
2021/03/27 10:45:19;;;;;;;4.95;1.08;;;;;;;6.78;94.43;100913.38;5190428;28;20483;-82
2021/03/27 10:48:04;;;;;;;2.08;1.02;;;;;;;6.15;99.21;100918.56;5207165;28;20114;-79
2021/03/27 10:51:01;;;;;;;2.72;0.95;;;;;;;5.48;100.00;100931.41;5210072;28;20025;-81
2021/03/27 10:54:06;;;;;;;5.57;2.25;;;;;;;5.75;100.00;100930.25;5203899;28;20046;-79
2021/03/27 10:57:01;;;;;;;7.95;3.22;;;;;;;5.93;100.00;100930.09;5171895;28;20449;-81
2021/03/27 10:59:34;;;;;;;2.08;1.10;;;;;;;5.77;100.00;100931.09;5205282;28;20072;-80
2021/03/27 11:02:19;;;;;;;4.50;1.48;;;;;;;5.61;100.00;100927.78;5196580;28;20037;-78
2021/03/27 11:05:19;;;;;;;13.00;6.18;;;;;;;5.94;100.00;100913.66;5200295;28;20059;-79
2021/03/27 11:08:08;;;;;;;6.47;2.25;;;;;;;5.71;100.00;100915.63;5231465;22;20033;-79
2021/03/27 11:10:58;;;;;;;3.75;1.20;;;;;;;5.94;100.00;100921.44;5245776;28;20502;-80
2021/03/27 11:13:48;;;;;;;6.88;2.80;;;;;;;5.87;100.00;100924.94;5247798;28;20404;-80
2021/03/27 11:16:35;;;;;;;6.65;1.90;;;;;;;6.04;100.00;100915.25;5246674;28;20016;-79
2021/03/27 11:19:30;;;;;;;10.10;4.05;;;;;;;6.19;100.00;100917.66;5241302;28;20036;-79
2021/03/27 11:22:10;;;;;;;3.65;1.50;;;;;;;6.55;100.00;100919.75;5245357;28;20036;-80
2021/03/27 11:24:52;;;;;;;4.57;1.60;;;;;;;6.82;99.28;100927.16;5245241;28;20366;-79
2021/03/27 11:27:58;;;;;;;7.90;1.80;;;;;;;7.06;98.84;100926.78;5245510;28;20044;-79
2021/03/27 11:31:13;;;;;;;6.10;1.50;;;;;;;7.49;96.25;100932.13;5241165;28;20032;-79
2021/03/27 11:33:59;;;;;;;8.93;1.83;;;;;;;7.77;97.16;100945.47;5220758;28;20052;-79
2021/03/27 11:36:40;;;;;;;4.95;1.58;;;;;;;7.63;92.33;100947.47;5241574;28;20032;-79
2021/03/27 11:39:18;;;;;;;5.10;1.77;;;;;;;7.89;96.69;100956.50;5238580;28;20106;-81
2021/03/27 11:42:04;;;;;;;4.60;1.08;;;;;;;7.56;91.89;100957.13;5242143;28;20039;-80
2021/03/27 11:44:50;;;;;;;7.25;1.15;;;;;;;7.59;91.09;100958.81;5238712;28;20452;-78
2021/03/27 11:47:50;;;;;;;2.95;1.15;;;;;;;7.88;91.47;100964.38;5245386;28;20038;-80
2021/03/27 11:50:52;;;;;;;5.80;1.55;;;;;;;8.26;91.35;100964.53;5240549;28;20025;-80
2021/03/27 11:53:40;;;;;;;7.20;1.60;;;;;;;8.28;88.09;100955.78;5223475;28;20123;-79
2021/03/27 11:56:13;;;;;;;5.43;1.50;;;;;;;8.16;88.65;100953.41;5226629;28;20033;-80
2021/03/27 11:59:42;;;;;;;4.93;1.25;;;;;;;8.56;87.17;100962.13;5223922;28;20095;-80
2021/03/27 12:02:31;;;;;;;7.05;1.48;;;;;;;8.43;85.96;100960.69;5242843;28;20017;-80
2021/03/27 12:05:20;;;;;;;5.63;1.48;;;;;;;8.43;87.45;100976.31;5243844;28;20037;-79
2021/03/27 12:08:31;;;;;;;7.80;1.55;;;;;;;8.50;87.59;100977.91;5243238;28;20486;-80
2021/03/27 12:11:07;;;;;;;6.28;1.38;;;;;;;8.90;84.89;100970.94;5217492;28;20044;-80
2021/03/27 12:13:40;;;;;;;8.55;1.63;;;;;;;8.86;84.70;100977.09;5244767;28;20048;-80
2021/03/27 12:16:44;;;;;;;10.23;1.85;;;;;;;8.69;84.92;100976.63;5245163;28;20404;-79
2021/03/27 12:19:25;;;;;;;10.35;2.28;;;;;;;8.90;84.98;100976.13;5233709;28;20106;-80
2021/03/27 12:22:05;;;;;;;10.98;2.67;;;;;;;9.12;84.25;100974.78;5244863;28;20029;-79
2021/03/27 12:24:42;;;;;;;7.68;2.15;;;;;;;9.18;81.68;100974.63;5241026;28;20040;-79
2021/03/27 12:27:15;;;;;;;8.88;2.33;;;;;;;9.44;79.94;100974.84;5227570;28;20029;-80
2021/03/27 12:29:56;;;;;;;9.77;2.42;;;;;;;9.66;80.94;100989.94;5244247;28;20044;-80
2021/03/27 12:32:42;;;;;;;9.77;2.17;;;;;;;9.51;79.04;100997.28;5240089;28;20031;-80
2021/03/27 12:35:37;;;;;;;8.85;2.00;;;;;;;9.23;78.44;100999.72;5241720;28;20134;-80
2021/03/27 12:38:07;;;;;;;10.63;2.53;;;;;;;9.20;77.60;100999.78;5240319;28;20032;-80
2021/03/27 12:40:50;;;;;;;8.68;2.42;;;;;;;9.28;77.54;100989.19;5226683;28;20028;-80
2021/03/27 12:43:24;;;;;;;11.20;3.35;;;;;;;9.40;76.55;101005.38;5244035;28;20035;-79
2021/03/27 12:46:05;;;;;;;9.98;2.10;;;;;;;9.70;79.10;101003.75;5240394;28;20040;-80
2021/03/27 12:48:45;;;;;;;10.50;2.25;;;;;;;9.80;75.39;100997.44;5243074;28;20247;-78
2021/03/27 12:51:40;;;;;;;11.60;2.10;;;;;;;10.03;73.73;100989.88;5245512;28;20500;-80
2021/03/27 12:54:31;;;;;;;10.35;1.85;;;;;;;9.92;73.95;100999.69;5232975;28;20052;-79
2021/03/27 12:57:31;;;;;;;11.63;2.47;;;;;;;9.80;74.24;100984.38;5243414;28;20035;-78
2021/03/27 13:00:46;;;;;;;8.38;1.80;;;;;;;9.79;75.27;100993.09;5240363;28;20102;-79
2021/03/27 13:03:52;;;;;;;8.48;2.08;;;;;;;9.82;74.42;100990.41;5242699;28;20103;-79
2021/03/27 13:06:36;;;;;;;9.23;2.42;;;;;;;9.94;73.74;100995.28;5225611;28;20044;-79
2021/03/27 13:09:12;;;;;;;12.07;2.40;;;;;;;9.72;73.76;100994.13;5243727;28;20039;-79
2021/03/27 13:11:53;;;;;;;7.18;1.92;;;;;;;9.92;73.85;100997.09;5243854;28;20035;-80